createdAt,value
2022-12-20T00:02:01.336Z,81.00
2022-12-20T00:04:30.384Z,79.40
2022-12-20T00:06:59.329Z,80.50
2022-12-20T00:09:28.578Z,80.50
2022-12-20T00:11:57.484Z,79.40
2022-12-20T00:14:27.044Z,79.00
2022-12-20T00:16:56.144Z,78.80
2022-12-20T00:19:25.127Z,77.60
2022-12-20T00:21:54.725Z,80.50
2022-12-20T00:24:26.296Z,78.50
2022-12-20T00:26:55.704Z,77.00
2022-12-20T00:29:24.732Z,77.30
2022-12-20T00:31:53.739Z,76.90
2022-12-20T00:34:23.031Z,76.40
2022-12-20T00:36:52.038Z,77.50
2022-12-20T00:39:21.031Z,76.60
2022-12-20T00:41:50.116Z,76.40
2022-12-20T00:44:19.055Z,76.50
2022-12-20T00:46:48.108Z,77.40
2022-12-20T00:49:17.653Z,76.90
2022-12-20T00:51:46.636Z,76.60
2022-12-20T00:54:15.855Z,76.80
2022-12-20T00:56:44.893Z,75.20
2022-12-20T00:59:14.018Z,75.40
2022-12-20T01:01:43.099Z,74.90
2022-12-20T01:04:12.191Z,75.60
2022-12-20T01:06:41.907Z,76.60
2022-12-20T01:09:11.820Z,74.90
2022-12-20T01:11:41.432Z,74.30
2022-12-20T01:14:15.466Z,74.70
2022-12-20T01:16:47.278Z,73.70
2022-12-20T01:19:18.475Z,74.00
2022-12-20T01:21:47.699Z,73.00
2022-12-20T01:24:19.264Z,72.60
2022-12-20T01:26:49.410Z,71.90
2022-12-20T01:29:18.691Z,71.70
2022-12-20T01:31:47.704Z,71.30
2022-12-20T01:34:16.790Z,71.00
2022-12-20T01:36:45.906Z,70.60
2022-12-20T01:39:18.055Z,70.00
2022-12-20T01:41:47.966Z,69.90
2022-12-20T01:44:19.872Z,69.70
2022-12-20T01:46:50.562Z,69.70
2022-12-20T01:49:27.673Z,69.50
2022-12-20T01:52:12.692Z,69.30
2022-12-20T01:55:10.294Z,68.50
2022-12-20T01:57:48.543Z,68.60
2022-12-20T02:00:18.413Z,68.10
2022-12-20T02:02:51.894Z,68.50
2022-12-20T02:05:24.241Z,68.00
2022-12-20T02:07:56.828Z,66.90
2022-12-20T02:10:36.546Z,67.00
2022-12-20T02:13:14.075Z,67.60
2022-12-20T02:15:53.327Z,67.50
2022-12-20T02:18:43.713Z,67.10
2022-12-20T02:21:20.066Z,67.60
2022-12-20T02:24:16.693Z,66.70
2022-12-20T02:27:10.412Z,65.60
2022-12-20T02:29:58.841Z,65.90
2022-12-20T02:32:42.536Z,66.30
2022-12-20T02:35:15.360Z,66.00
2022-12-20T02:37:56.863Z,65.90
2022-12-20T02:40:30.319Z,66.10
2022-12-20T02:43:04.449Z,66.10
2022-12-20T02:45:35.820Z,65.70
2022-12-20T02:48:11.513Z,64.40
2022-12-20T02:50:46.779Z,65.30
2022-12-20T02:53:16.702Z,64.90
2022-12-20T02:55:58.648Z,64.30
2022-12-20T02:58:37.635Z,64.30
2022-12-20T03:01:14.974Z,63.60
2022-12-20T03:03:44.266Z,64.10
2022-12-20T03:06:13.389Z,64.50
2022-12-20T03:08:42.527Z,64.30
2022-12-20T03:11:11.658Z,64.60
2022-12-20T03:13:42.305Z,65.00
2022-12-20T03:16:12.055Z,64.20
2022-12-20T03:18:41.156Z,64.50
2022-12-20T03:21:10.154Z,64.60
2022-12-20T03:23:39.172Z,64.40
2022-12-20T03:26:08.349Z,63.90
2022-12-20T03:28:37.483Z,63.40
2022-12-20T03:31:09.472Z,63.00
2022-12-20T03:33:38.513Z,61.70
2022-12-20T03:36:09.963Z,60.90
2022-12-20T03:38:39.509Z,60.20
2022-12-20T03:41:08.587Z,60.20
2022-12-20T03:43:37.551Z,60.80
2022-12-20T03:46:07.133Z,61.40
2022-12-20T03:48:36.178Z,62.30
2022-12-20T03:51:05.625Z,60.50
2022-12-20T03:53:35.290Z,61.60
2022-12-20T03:56:04.305Z,59.90
2022-12-20T03:58:33.420Z,61.00
2022-12-20T04:01:02.700Z,61.70
2022-12-20T04:03:31.952Z,60.80
2022-12-20T04:06:01.037Z,58.70
2022-12-20T04:08:29.971Z,59.80
2022-12-20T04:11:19.024Z,59.70
2022-12-20T04:13:53.574Z,59.80
2022-12-20T04:16:24.986Z,59.50
2022-12-20T04:18:54.375Z,59.40
2022-12-20T04:21:31.768Z,59.50
2022-12-20T04:24:02.391Z,60.30
2022-12-20T04:26:31.704Z,59.60
2022-12-20T04:29:00.780Z,58.20
2022-12-20T04:31:30.011Z,59.90
2022-12-20T04:33:59.004Z,59.70
2022-12-20T04:36:28.298Z,60.50
2022-12-20T04:38:57.311Z,60.90
2022-12-20T04:41:28.115Z,60.60
2022-12-20T04:43:59.420Z,59.40
2022-12-20T04:46:29.060Z,59.00
2022-12-20T04:48:59.636Z,60.70
2022-12-20T04:51:29.721Z,60.60
2022-12-20T04:53:59.011Z,60.20
2022-12-20T04:56:30.236Z,59.90
2022-12-20T04:59:00.815Z,60.10
2022-12-20T05:01:29.988Z,58.30
2022-12-20T05:03:59.182Z,60.10
2022-12-20T05:06:28.243Z,59.90
2022-12-20T05:08:57.439Z,59.80
2022-12-20T05:11:26.390Z,59.70
2022-12-20T05:13:55.498Z,59.90
2022-12-20T05:16:24.497Z,60.50
2022-12-20T05:18:55.000Z,59.40
2022-12-20T05:21:41.838Z,59.10
2022-12-20T05:24:29.972Z,59.60
2022-12-20T05:26:59.088Z,60.30
2022-12-20T05:29:28.797Z,57.10
2022-12-20T05:31:57.830Z,59.70
2022-12-20T05:34:26.984Z,59.40
2022-12-20T05:36:55.999Z,60.10
2022-12-20T05:39:24.986Z,58.00
2022-12-20T05:41:54.821Z,59.70
2022-12-20T05:44:28.901Z,59.50
2022-12-20T05:46:58.064Z,59.20
2022-12-20T05:49:29.627Z,58.60
2022-12-20T05:51:58.553Z,57.60
2022-12-20T05:54:27.559Z,59.50
2022-12-20T05:56:59.435Z,59.40
2022-12-20T05:59:28.326Z,58.20
2022-12-20T06:01:57.401Z,58.90
2022-12-20T06:04:26.925Z,59.80
2022-12-20T06:06:55.889Z,57.10
2022-12-20T06:09:24.839Z,56.40
2022-12-20T06:11:54.354Z,58.10
2022-12-20T06:14:23.677Z,58.90
2022-12-20T06:16:53.814Z,56.80
2022-12-20T06:19:23.060Z,57.70
2022-12-20T06:21:52.070Z,57.60
2022-12-20T06:24:21.017Z,57.90
2022-12-20T06:26:50.246Z,57.50
2022-12-20T06:29:21.849Z,58.60
2022-12-20T06:31:50.854Z,58.10
2022-12-20T06:34:20.364Z,56.90
2022-12-20T06:36:49.291Z,57.90
2022-12-20T06:39:18.309Z,57.30
2022-12-20T06:41:50.368Z,56.80
2022-12-20T06:44:19.973Z,56.90
2022-12-20T06:46:48.971Z,57.10
2022-12-20T06:49:18.239Z,56.40
2022-12-20T06:51:47.209Z,55.50
2022-12-20T06:54:18.061Z,55.60
2022-12-20T06:56:47.050Z,56.10
2022-12-20T06:59:16.502Z,55.20
2022-12-20T07:01:51.156Z,55.80
2022-12-20T07:04:26.623Z,56.50
2022-12-20T07:06:58.926Z,54.90
2022-12-20T07:09:27.923Z,52.60
2022-12-20T07:11:57.099Z,52.00
2022-12-20T07:14:26.322Z,55.80
2022-12-20T07:16:56.079Z,57.00
2022-12-20T07:19:25.191Z,55.70
2022-12-20T07:21:55.227Z,56.60
2022-12-20T07:24:24.238Z,56.30
2022-12-20T07:26:55.168Z,56.50
2022-12-20T07:29:24.252Z,54.60
2022-12-20T07:31:55.317Z,55.00
2022-12-20T07:34:24.961Z,55.60
2022-12-20T07:36:55.151Z,55.60
2022-12-20T07:39:24.715Z,55.60
2022-12-20T07:41:58.139Z,55.00
2022-12-20T07:44:27.736Z,54.30
2022-12-20T07:46:56.700Z,54.20
2022-12-20T07:49:25.758Z,50.00
2022-12-20T07:52:00.968Z,54.30
2022-12-20T07:54:36.820Z,54.20
2022-12-20T07:57:17.504Z,53.30
2022-12-20T07:59:51.454Z,54.40
2022-12-20T08:02:23.444Z,53.20
2022-12-20T08:04:52.619Z,52.90
2022-12-20T08:07:21.784Z,55.70
2022-12-20T08:09:51.073Z,55.30
2022-12-20T08:12:21.413Z,52.20
2022-12-20T08:14:53.614Z,52.90
2022-12-20T08:17:25.482Z,55.00
2022-12-20T08:19:54.744Z,54.90
2022-12-20T08:22:24.212Z,54.30
2022-12-20T08:24:53.166Z,55.30
2022-12-20T08:27:22.121Z,55.40
2022-12-20T08:29:54.432Z,55.10
2022-12-20T08:32:26.078Z,53.10
2022-12-20T08:34:55.578Z,52.20
2022-12-20T08:37:28.607Z,53.30
2022-12-20T08:40:01.863Z,54.40
2022-12-20T08:42:31.069Z,55.20
2022-12-20T08:45:00.108Z,55.30
2022-12-20T08:47:31.721Z,54.70
2022-12-20T08:50:00.916Z,55.00
2022-12-20T08:52:30.971Z,55.80
2022-12-20T08:55:01.753Z,54.20
2022-12-20T08:57:31.431Z,54.00
2022-12-20T09:00:00.494Z,55.10
2022-12-20T09:02:29.667Z,55.60
2022-12-20T09:04:58.865Z,56.40
2022-12-20T09:07:28.246Z,56.10
2022-12-20T09:09:58.148Z,55.20
2022-12-20T09:12:27.418Z,55.40
2022-12-20T09:14:56.460Z,56.80
2022-12-20T09:17:25.669Z,56.10
2022-12-20T09:19:56.275Z,56.20
2022-12-20T09:22:25.175Z,56.00
2022-12-20T09:24:54.309Z,55.30
2022-12-20T09:27:23.651Z,55.90
2022-12-20T09:29:52.679Z,56.80
2022-12-20T09:32:21.793Z,55.70
2022-12-20T09:34:50.977Z,56.00
2022-12-20T09:37:19.989Z,56.40
2022-12-20T09:39:54.087Z,57.00
2022-12-20T09:42:27.189Z,56.50
2022-12-20T09:45:09.666Z,55.10
2022-12-20T09:47:40.462Z,56.30
2022-12-20T09:50:16.917Z,56.60
2022-12-20T09:53:18.164Z,57.20
2022-12-20T09:56:00.706Z,56.90
2022-12-20T09:58:44.337Z,56.70
2022-12-20T10:01:25.257Z,57.60
2022-12-20T10:03:57.636Z,57.30
2022-12-20T10:06:45.365Z,56.30
2022-12-20T10:09:58.466Z,58.60
2022-12-20T10:12:48.730Z,57.10
2022-12-20T10:15:23.865Z,57.80
2022-12-20T10:18:08.167Z,57.90
2022-12-20T10:21:12.332Z,57.00
2022-12-20T10:23:46.956Z,57.20
2022-12-20T10:26:16.356Z,57.70
2022-12-20T10:28:50.743Z,57.60
2022-12-20T10:31:23.465Z,58.90
2022-12-20T10:33:52.845Z,58.30
2022-12-20T10:36:35.109Z,58.50
2022-12-20T10:39:09.370Z,58.60
2022-12-20T10:41:41.394Z,57.90
2022-12-20T10:44:27.855Z,59.20
2022-12-20T10:46:59.625Z,59.00
2022-12-20T10:49:42.105Z,59.00
2022-12-20T10:52:11.456Z,58.20
2022-12-20T10:54:40.323Z,59.30
2022-12-20T10:57:25.723Z,58.80
2022-12-20T11:00:07.418Z,58.40
2022-12-20T11:02:42.139Z,58.20
2022-12-20T11:05:11.986Z,59.10
2022-12-20T11:08:33.460Z,58.80
2022-12-20T11:10:45.088Z,59.40
2022-12-20T11:13:30.245Z,58.00
2022-12-20T11:16:02.507Z,57.90
2022-12-20T11:18:49.352Z,58.30
2022-12-20T11:21:28.496Z,59.90
2022-12-20T11:24:24.226Z,59.10
2022-12-20T11:27:22.242Z,59.80
2022-12-20T11:30:09.390Z,59.50
2022-12-20T11:32:56.701Z,59.40
2022-12-20T11:35:38.780Z,59.40
2022-12-20T11:38:32.432Z,60.30
2022-12-20T11:41:16.846Z,59.30
2022-12-20T11:44:23.418Z,59.50
2022-12-20T11:47:10.517Z,59.70
2022-12-20T11:49:58.665Z,59.80
2022-12-20T11:52:38.492Z,60.30
2022-12-20T11:55:30.893Z,59.90
2022-12-20T11:58:19.252Z,60.30
2022-12-20T12:00:53.400Z,60.30
2022-12-20T12:03:34.809Z,61.40
2022-12-20T12:06:30.360Z,61.00
2022-12-20T12:09:19.813Z,61.20
2022-12-20T12:12:27.238Z,61.00
2022-12-20T12:15:09.894Z,61.10
2022-12-20T12:18:03.619Z,61.30
2022-12-20T12:20:51.211Z,61.10
2022-12-20T12:23:29.534Z,61.10
2022-12-20T12:26:03.050Z,62.20
2022-12-20T12:28:32.085Z,62.10
2022-12-20T12:31:08.136Z,61.60
2022-12-20T12:33:47.435Z,61.70
2022-12-20T12:37:05.619Z,61.70
2022-12-20T12:39:52.742Z,62.00
2022-12-20T12:42:58.280Z,61.90
2022-12-20T12:46:03.012Z,62.10
2022-12-20T12:48:59.274Z,62.50
2022-12-20T12:51:35.938Z,62.80
2022-12-20T12:54:10.624Z,62.70
2022-12-20T12:56:47.152Z,62.60
2022-12-20T12:59:46.562Z,62.80
2022-12-20T13:02:16.073Z,62.60
2022-12-20T13:05:11.363Z,62.70
2022-12-20T13:07:44.685Z,63.60
2022-12-20T13:10:16.856Z,62.70
2022-12-20T13:12:54.666Z,62.70
2022-12-20T13:15:23.712Z,62.60
2022-12-20T13:17:56.832Z,62.80
2022-12-20T13:20:28.235Z,62.70
2022-12-20T13:23:15.297Z,62.90
2022-12-20T13:25:50.031Z,63.00
2022-12-20T13:28:25.174Z,63.10
2022-12-20T13:31:03.269Z,63.20
2022-12-20T13:33:48.666Z,63.60
2022-12-20T13:36:38.361Z,63.90
2022-12-20T13:39:34.373Z,64.30
2022-12-20T13:42:32.157Z,64.70
2022-12-20T13:45:05.566Z,64.30
2022-12-20T13:47:41.924Z,64.10
2022-12-20T13:50:25.785Z,64.30
2022-12-20T13:52:55.859Z,64.30
2022-12-20T13:55:38.213Z,64.50
2022-12-20T13:58:13.227Z,64.50
2022-12-20T14:00:43.043Z,64.50
2022-12-20T14:03:32.897Z,64.60
2022-12-20T14:06:05.408Z,65.20
2022-12-20T14:08:37.605Z,64.80
2022-12-20T14:11:11.090Z,64.80
2022-12-20T14:13:40.640Z,65.00
2022-12-20T14:16:18.080Z,65.10
2022-12-20T14:19:06.600Z,65.20
2022-12-20T14:21:43.003Z,65.50
2022-12-20T14:24:22.342Z,65.70
2022-12-20T14:26:54.889Z,66.30
2022-12-20T14:29:32.226Z,65.30
2022-12-20T14:32:01.233Z,65.50
2022-12-20T14:34:38.054Z,65.70
2022-12-20T14:37:25.377Z,65.50
2022-12-20T14:40:06.113Z,65.70
2022-12-20T14:42:38.145Z,65.70
2022-12-20T14:45:17.100Z,65.80
2022-12-20T14:48:08.578Z,65.70
2022-12-20T14:50:41.867Z,66.10
2022-12-20T14:53:21.551Z,65.90
2022-12-20T14:55:50.959Z,65.90
2022-12-20T14:58:36.901Z,65.90
2022-12-20T15:01:21.935Z,65.90
2022-12-20T15:04:02.071Z,66.00
2022-12-20T15:06:35.767Z,66.00
2022-12-20T15:09:06.445Z,65.80
2022-12-20T15:11:38.024Z,66.00
2022-12-20T15:14:41.899Z,65.90
2022-12-20T15:17:16.940Z,66.00
2022-12-20T15:19:46.125Z,65.90
2022-12-20T15:22:21.153Z,65.80
2022-12-20T15:24:50.072Z,65.80
2022-12-20T15:27:19.196Z,65.80
2022-12-20T15:29:48.092Z,65.80
2022-12-20T15:32:25.155Z,65.60
2022-12-20T15:34:54.286Z,65.60
2022-12-20T15:37:23.324Z,65.70
2022-12-20T15:39:52.567Z,65.50
2022-12-20T15:42:24.036Z,65.50
2022-12-20T15:44:53.062Z,65.60
2022-12-20T15:47:22.065Z,65.60
2022-12-20T15:49:50.996Z,65.70
2022-12-20T15:52:25.472Z,65.80
2022-12-20T15:54:54.786Z,65.80
2022-12-20T15:57:23.832Z,65.70
2022-12-20T16:00:02.103Z,65.80
2022-12-20T16:02:32.307Z,65.80
2022-12-20T16:05:02.593Z,65.80
2022-12-20T16:07:31.887Z,65.80
2022-12-20T16:10:00.865Z,65.80
2022-12-20T16:12:34.706Z,65.90
2022-12-20T16:15:03.766Z,65.80
2022-12-20T16:17:32.731Z,66.00
2022-12-20T16:20:01.793Z,66.80
2022-12-20T16:22:30.709Z,66.30
2022-12-20T16:25:00.093Z,66.50
2022-12-20T16:27:29.111Z,66.60
2022-12-20T16:29:58.299Z,66.60
2022-12-20T16:32:27.236Z,66.70
2022-12-20T16:34:56.161Z,66.60
2022-12-20T16:37:25.186Z,67.70
2022-12-20T16:39:54.232Z,67.90
2022-12-20T16:42:23.483Z,67.70
2022-12-20T16:44:55.511Z,67.80
2022-12-20T16:47:24.577Z,68.20
2022-12-20T16:49:53.988Z,69.30
2022-12-20T16:52:24.653Z,69.70
2022-12-20T16:54:53.687Z,69.80
2022-12-20T16:57:22.640Z,71.20
2022-12-20T16:59:51.590Z,70.80
2022-12-20T17:02:32.211Z,69.80
2022-12-20T17:05:02.408Z,69.90
2022-12-20T17:07:34.096Z,70.60
2022-12-20T17:10:11.528Z,71.20
2022-12-20T17:12:40.183Z,72.90
2022-12-20T17:15:16.167Z,73.60
2022-12-20T17:17:45.259Z,72.30
2022-12-20T17:20:15.334Z,69.50
2022-12-20T17:25:31.333Z,70.40
2022-12-20T17:28:00.322Z,71.10
2022-12-20T17:30:29.277Z,71.30
2022-12-20T17:32:58.374Z,71.20
2022-12-20T17:35:32.353Z,71.20
2022-12-20T17:38:03.014Z,71.50
2022-12-20T17:40:32.147Z,72.50
2022-12-20T17:43:01.608Z,71.40
2022-12-20T17:45:33.610Z,73.60
2022-12-20T17:48:02.596Z,72.40
2022-12-20T17:50:31.571Z,70.00
2022-12-20T17:53:00.670Z,71.90
2022-12-20T17:55:30.372Z,69.80
2022-12-20T17:57:59.364Z,73.80
2022-12-20T18:00:38.464Z,74.50
2022-12-20T18:03:15.819Z,70.80
2022-12-20T18:06:00.948Z,69.50
2022-12-20T18:08:34.893Z,70.00
2022-12-20T18:11:04.174Z,69.60
2022-12-20T18:13:33.543Z,70.30
2022-12-20T18:16:07.433Z,71.70
2022-12-20T18:18:37.346Z,70.50
2022-12-20T18:21:09.110Z,69.70
2022-12-20T18:23:39.378Z,71.50
2022-12-20T18:26:23.453Z,70.60
2022-12-20T18:28:56.370Z,71.60
2022-12-20T18:31:28.515Z,70.70
2022-12-20T18:33:58.963Z,72.00
2022-12-20T18:36:33.499Z,72.00
2022-12-20T18:39:03.626Z,71.70
2022-12-20T18:41:33.280Z,72.20
2022-12-20T18:44:04.516Z,71.80
2022-12-20T18:46:35.019Z,71.30
2022-12-20T18:49:04.733Z,71.70
2022-12-20T18:51:39.329Z,71.00
2022-12-20T18:54:09.792Z,70.70
2022-12-20T18:56:40.319Z,70.70
2022-12-20T18:59:12.627Z,71.30
2022-12-20T19:01:43.586Z,71.80
2022-12-20T19:04:14.299Z,72.00
2022-12-20T19:06:44.934Z,72.30
2022-12-20T19:09:15.299Z,72.10
2022-12-20T19:11:44.919Z,71.30
2022-12-20T19:14:14.720Z,71.20
2022-12-20T19:16:43.752Z,70.50
2022-12-20T19:19:12.772Z,70.30
2022-12-20T19:21:43.425Z,70.00
2022-12-20T19:24:13.170Z,71.40
2022-12-20T19:26:42.932Z,72.50
2022-12-20T19:29:12.939Z,72.50
2022-12-20T19:31:42.120Z,71.40
2022-12-20T19:34:13.924Z,70.50
2022-12-20T19:36:46.574Z,70.10
2022-12-20T19:39:21.613Z,69.80
2022-12-20T19:42:21.793Z,70.10
2022-12-20T19:44:40.248Z,70.80
2022-12-20T19:47:09.166Z,70.60
2022-12-20T19:49:38.339Z,70.40
2022-12-20T19:52:08.549Z,69.80
2022-12-20T19:54:37.549Z,69.40
2022-12-20T19:57:06.733Z,69.80
2022-12-20T19:59:35.771Z,69.30
2022-12-20T20:02:04.845Z,69.30
2022-12-20T20:04:34.182Z,69.20
2022-12-20T20:07:04.823Z,69.30
2022-12-20T20:09:33.832Z,69.50
2022-12-20T20:12:03.364Z,69.50
2022-12-20T20:14:32.594Z,69.50
2022-12-20T20:17:01.533Z,69.90
2022-12-20T20:19:30.499Z,69.90
2022-12-20T20:21:59.532Z,69.90
2022-12-20T20:24:28.692Z,70.00
2022-12-20T20:26:57.624Z,70.10
2022-12-20T20:29:26.641Z,70.10
2022-12-20T20:31:55.771Z,70.30
2022-12-20T20:34:24.911Z,70.50
2022-12-20T20:36:53.872Z,70.60
2022-12-20T20:39:23.062Z,70.70
2022-12-20T20:41:52.035Z,70.60
2022-12-20T20:44:21.044Z,70.80
2022-12-20T20:46:50.277Z,70.70
2022-12-20T20:49:20.791Z,70.90
2022-12-20T20:51:49.751Z,71.00
2022-12-20T20:54:18.693Z,71.00
2022-12-20T20:56:47.612Z,71.00
2022-12-20T20:59:18.071Z,72.70
2022-12-20T21:01:47.321Z,73.20
2022-12-20T21:04:16.418Z,73.20
2022-12-20T21:06:47.086Z,73.10
2022-12-20T21:09:16.090Z,72.40
2022-12-20T21:11:45.329Z,72.40
2022-12-20T21:14:14.528Z,73.00
2022-12-20T21:16:43.556Z,72.90
2022-12-20T21:19:12.690Z,73.60
2022-12-20T21:21:41.726Z,73.30
2022-12-20T21:24:10.681Z,73.10
2022-12-20T21:26:39.569Z,72.50
2022-12-20T21:29:08.608Z,73.40
2022-12-20T21:31:38.475Z,73.90
2022-12-20T21:34:07.726Z,73.60
2022-12-20T21:36:36.993Z,74.70
2022-12-20T21:39:06.375Z,73.80
2022-12-20T21:41:35.384Z,75.60
2022-12-20T21:44:04.604Z,74.80
2022-12-20T21:46:34.174Z,75.10
2022-12-20T21:49:03.219Z,74.30
2022-12-20T21:51:32.912Z,73.70
2022-12-20T21:54:03.276Z,73.50
2022-12-20T21:56:35.019Z,75.00
2022-12-20T21:59:05.292Z,74.50
2022-12-20T22:01:34.397Z,73.80
2022-12-20T22:04:07.727Z,75.60
2022-12-20T22:06:37.159Z,75.40
2022-12-20T22:09:11.157Z,75.30
2022-12-20T22:11:41.046Z,74.60
2022-12-20T22:14:12.839Z,74.50
2022-12-20T22:16:42.487Z,74.30
2022-12-20T22:19:16.534Z,74.30
2022-12-20T22:21:45.516Z,74.70
2022-12-20T22:24:14.681Z,76.50
2022-12-20T22:26:43.670Z,75.60
2022-12-20T22:29:12.617Z,76.20
2022-12-20T22:31:41.641Z,76.50
2022-12-20T22:34:10.639Z,76.10
2022-12-20T22:36:39.663Z,75.90
2022-12-20T22:39:09.863Z,76.00
2022-12-20T22:41:39.105Z,75.60
2022-12-20T22:44:08.251Z,75.60
2022-12-20T22:46:37.162Z,75.70
2022-12-20T22:49:06.293Z,75.90
2022-12-20T22:51:35.266Z,76.00
2022-12-20T22:54:04.248Z,76.00
2022-12-20T22:56:33.236Z,76.20
2022-12-20T22:59:02.824Z,76.60
2022-12-20T23:01:31.830Z,77.00
2022-12-20T23:04:01.044Z,76.90
2022-12-20T23:06:30.049Z,77.20
2022-12-20T23:08:59.185Z,77.40
2022-12-20T23:11:48.700Z,77.60
2022-12-20T23:14:38.894Z,77.70
2022-12-20T23:17:10.306Z,78.10
2022-12-20T23:19:57.800Z,78.30
2022-12-20T23:22:39.559Z,78.50
2022-12-20T23:25:14.797Z,78.90
2022-12-20T23:27:45.910Z,79.00
2022-12-20T23:30:18.202Z,78.90
2022-12-20T23:32:47.170Z,79.20
2022-12-20T23:35:17.953Z,79.10
2022-12-20T23:37:47.906Z,79.80
2022-12-20T23:40:18.225Z,78.80
2022-12-20T23:42:47.430Z,79.10
2022-12-20T23:45:16.654Z,79.10
2022-12-20T23:47:45.576Z,79.70
2022-12-20T23:50:14.546Z,79.40
2022-12-20T23:52:43.555Z,79.70
2022-12-20T23:55:12.453Z,79.40
2022-12-20T23:57:41.535Z,79.80
